createdAt,value
2023-05-13T00:03:42.553Z,9.93
2023-05-13T00:07:44.463Z,9.95
2023-05-13T00:11:46.260Z,9.27
2023-05-13T00:15:47.891Z,9.85
2023-05-13T00:19:49.493Z,9.63
2023-05-13T00:23:51.700Z,9.50
2023-05-13T00:27:53.402Z,8.82
2023-05-13T00:31:55.226Z,9.75
2023-05-13T00:35:57.496Z,9.40
2023-05-13T00:39:59.795Z,10.20
2023-05-13T00:44:01.494Z,11.10
2023-05-13T00:48:06.436Z,11.63
2023-05-13T00:52:08.292Z,12.10
2023-05-13T00:56:10.019Z,12.27
2023-05-13T01:00:12.169Z,11.95
2023-05-13T01:04:35.757Z,12.57
2023-05-13T01:09:07.951Z,13.23
2023-05-13T01:13:16.629Z,12.43
2023-05-13T01:17:31.757Z,13.07
2023-05-13T01:21:38.704Z,13.07
2023-05-13T01:25:40.952Z,12.23
2023-05-13T01:29:44.727Z,13.00
2023-05-13T01:33:47.453Z,13.13
2023-05-13T01:37:50.302Z,13.30
2023-05-13T01:41:52.120Z,13.52
2023-05-13T01:45:54.301Z,16.30
2023-05-13T01:49:56.070Z,15.80
2023-05-13T01:53:57.875Z,16.92
2023-05-13T01:57:59.531Z,16.67
2023-05-13T02:02:01.285Z,15.18
2023-05-13T02:06:03.098Z,14.27
2023-05-13T02:10:05.253Z,15.77
2023-05-13T02:14:06.996Z,15.70
2023-05-13T02:18:08.710Z,15.25
2023-05-13T02:22:10.557Z,15.15
2023-05-13T02:26:12.218Z,14.55
2023-05-13T02:30:14.054Z,14.48
2023-05-13T02:34:15.742Z,14.93
2023-05-13T02:38:17.358Z,13.80
2023-05-13T02:42:19.086Z,14.40
2023-05-13T02:46:20.800Z,12.37
2023-05-13T02:50:22.928Z,11.82
2023-05-13T02:54:24.732Z,11.82
2023-05-13T02:58:26.401Z,12.32
2023-05-13T03:02:28.261Z,13.50
2023-05-13T03:06:30.039Z,13.88
2023-05-13T03:10:31.675Z,13.80
2023-05-13T03:14:34.719Z,12.37
2023-05-13T03:18:36.432Z,12.98
2023-05-13T03:22:41.392Z,12.57
2023-05-13T03:26:43.011Z,11.82
2023-05-13T03:30:44.796Z,12.60
2023-05-13T03:34:46.419Z,12.45
2023-05-13T03:38:48.040Z,11.57
2023-05-13T03:42:49.654Z,12.15
2023-05-13T03:46:51.311Z,12.00
2023-05-13T03:50:53.105Z,10.65
2023-05-13T03:54:54.747Z,11.15
2023-05-13T03:58:56.395Z,11.20
2023-05-13T04:02:58.078Z,11.73
2023-05-13T04:06:59.788Z,11.32
2023-05-13T04:11:01.441Z,12.02
2023-05-13T04:15:03.277Z,11.63
2023-05-13T04:19:04.972Z,11.93
2023-05-13T04:23:07.241Z,13.70
2023-05-13T04:27:09.357Z,13.27
2023-05-13T04:31:12.190Z,14.15
2023-05-13T04:35:13.864Z,12.52
2023-05-13T04:39:15.783Z,12.93
2023-05-13T04:43:17.486Z,11.43
2023-05-13T04:47:19.201Z,10.73
2023-05-13T04:51:21.244Z,9.57
2023-05-13T04:55:23.750Z,9.32
2023-05-13T04:59:25.461Z,8.23
2023-05-13T05:03:27.189Z,7.85
2023-05-13T05:07:29.280Z,8.13
2023-05-13T05:11:31.121Z,8.85
2023-05-13T05:15:32.798Z,7.85
2023-05-13T05:19:34.510Z,8.65
2023-05-13T05:23:36.432Z,7.90
2023-05-13T05:27:38.209Z,7.37
2023-05-13T05:31:40.264Z,8.52
2023-05-13T05:35:42.044Z,8.30
2023-05-13T05:39:43.686Z,10.10
2023-05-13T05:43:45.529Z,8.40
2023-05-13T05:47:47.163Z,8.60
2023-05-13T05:51:49.038Z,9.73
2023-05-13T05:55:52.362Z,10.70
2023-05-13T05:59:55.038Z,10.93
2023-05-13T06:03:56.719Z,9.90
2023-05-13T06:07:58.436Z,10.02
2023-05-13T06:12:00.680Z,10.27
2023-05-13T06:16:02.385Z,9.82
2023-05-13T06:20:04.369Z,10.00
2023-05-13T06:24:06.286Z,9.45
2023-05-13T06:28:08.576Z,9.00
2023-05-13T06:32:10.306Z,7.80
2023-05-13T06:36:12.989Z,8.02
2023-05-13T06:40:14.676Z,8.18
2023-05-13T06:44:16.334Z,7.78
2023-05-13T06:48:17.976Z,8.25
2023-05-13T06:52:19.636Z,7.28
2023-05-13T06:56:24.177Z,8.02
2023-05-13T07:00:25.924Z,7.60
2023-05-13T07:04:30.046Z,8.00
2023-05-13T07:08:31.674Z,7.28
2023-05-13T07:12:33.790Z,7.57
2023-05-13T07:16:35.437Z,6.70
2023-05-13T07:20:37.565Z,6.78
2023-05-13T07:24:39.193Z,6.37
2023-05-13T07:28:40.952Z,6.90
2023-05-13T07:32:42.718Z,6.43
2023-05-13T07:36:44.502Z,6.72
2023-05-13T07:40:46.111Z,7.50
2023-05-13T07:44:47.745Z,7.62
2023-05-13T07:48:49.439Z,7.00
2023-05-13T07:52:51.745Z,8.38
2023-05-13T07:56:53.448Z,8.30
2023-05-13T08:00:55.217Z,8.50
2023-05-13T08:04:56.889Z,8.35
2023-05-13T08:08:58.537Z,8.98
2023-05-13T08:13:00.898Z,7.95
2023-05-13T08:17:05.585Z,8.70
2023-05-13T08:21:07.456Z,7.57
2023-05-13T08:25:11.170Z,7.75
2023-05-13T08:29:15.408Z,7.45
2023-05-13T08:33:17.055Z,6.37
2023-05-13T08:37:18.768Z,6.22
2023-05-13T08:41:22.556Z,5.20
2023-05-13T08:45:27.979Z,5.10
2023-05-13T08:49:29.756Z,5.15
2023-05-13T08:53:31.897Z,4.95
2023-05-13T08:57:33.663Z,5.00
2023-05-13T09:01:35.563Z,4.50
2023-05-13T09:05:38.907Z,5.07
2023-05-13T09:09:40.864Z,4.57
2023-05-13T09:13:44.516Z,3.65
2023-05-13T09:17:53.576Z,3.60
2023-05-13T09:21:55.730Z,3.50
2023-05-13T09:25:57.409Z,3.47
2023-05-13T09:30:00.528Z,3.37
2023-05-13T09:34:02.159Z,3.50
2023-05-13T09:38:13.678Z,3.20
2023-05-13T09:42:19.563Z,3.12
2023-05-13T09:46:21.492Z,3.47
2023-05-13T09:50:23.792Z,3.60
2023-05-13T09:54:27.211Z,3.20
2023-05-13T09:58:30.622Z,3.70
2023-05-13T10:02:33.151Z,3.50
2023-05-13T10:06:35.988Z,3.60
2023-05-13T10:10:38.629Z,3.70
2023-05-13T10:14:41.993Z,3.50
2023-05-13T10:18:43.702Z,3.65
2023-05-13T10:22:46.023Z,3.80
2023-05-13T10:26:51.702Z,4.07
2023-05-13T10:30:53.467Z,3.55
2023-05-13T10:35:04.287Z,3.40
2023-05-13T10:39:17.805Z,3.55
2023-05-13T10:43:23.009Z,3.83
2023-05-13T10:47:24.867Z,3.08
2023-05-13T10:51:27.032Z,3.03
2023-05-13T10:55:28.748Z,3.05
2023-05-13T10:59:30.770Z,3.47
2023-05-13T11:03:32.610Z,3.20
2023-05-13T11:07:39.211Z,3.45
2023-05-13T11:11:41.304Z,3.60
2023-05-13T11:15:49.757Z,3.40
2023-05-13T11:19:53.408Z,3.15
2023-05-13T11:24:05.957Z,3.22
2023-05-13T11:28:09.096Z,2.90
2023-05-13T11:32:10.828Z,3.20
2023-05-13T11:36:12.631Z,2.65
2023-05-13T11:40:23.241Z,2.83
2023-05-13T11:44:25.813Z,3.03
2023-05-13T11:48:27.614Z,3.20
2023-05-13T11:52:29.385Z,2.87
2023-05-13T11:56:31.139Z,2.72
2023-05-13T12:00:34.829Z,2.75
2023-05-13T12:04:36.770Z,2.72
2023-05-13T12:08:45.703Z,2.87
2023-05-13T12:12:47.997Z,2.80
2023-05-13T12:16:50.598Z,2.80
2023-05-13T12:20:52.324Z,2.40
2023-05-13T12:24:53.966Z,2.95
2023-05-13T12:28:59.849Z,2.80
2023-05-13T12:33:01.851Z,2.45
2023-05-13T12:37:12.177Z,3.08
2023-05-13T12:41:13.985Z,2.58
2023-05-13T12:45:15.764Z,2.40
2023-05-13T12:49:17.426Z,2.70
2023-05-13T12:53:19.087Z,2.45
2023-05-13T12:57:20.773Z,2.55
2023-05-13T13:01:22.702Z,3.03
2023-05-13T13:05:25.121Z,2.85
2023-05-13T13:09:27.082Z,2.70
2023-05-13T13:13:28.782Z,2.55
2023-05-13T13:17:30.507Z,2.70
2023-05-13T13:21:32.213Z,2.75
2023-05-13T13:25:33.916Z,3.00
2023-05-13T13:29:35.630Z,2.53
2023-05-13T13:33:37.278Z,2.90
2023-05-13T13:37:39.166Z,2.60
2023-05-13T13:41:40.860Z,2.60
2023-05-13T13:45:42.500Z,2.80
2023-05-13T13:49:44.192Z,2.40
2023-05-13T13:53:45.888Z,2.60
2023-05-13T13:57:47.837Z,2.05
2023-05-13T14:01:49.651Z,2.50
2023-05-13T14:05:51.858Z,2.40
2023-05-13T14:09:53.551Z,2.17
2023-05-13T14:13:55.264Z,2.40
2023-05-13T14:17:57.322Z,2.42
2023-05-13T14:21:59.074Z,2.00
2023-05-13T14:26:00.724Z,2.15
2023-05-13T14:30:02.543Z,1.83
2023-05-13T14:34:07.861Z,2.00
2023-05-13T14:38:27.762Z,2.33
2023-05-13T14:42:29.540Z,2.78
2023-05-13T14:46:33.886Z,2.30
2023-05-13T14:50:36.300Z,2.28
2023-05-13T14:54:38.230Z,3.10
2023-05-13T14:58:39.929Z,2.90
2023-05-13T15:02:41.721Z,2.50
2023-05-13T15:06:43.530Z,2.45
2023-05-13T15:10:45.964Z,2.37
2023-05-13T15:14:54.726Z,3.17
2023-05-13T15:18:56.442Z,2.33
2023-05-13T15:22:58.106Z,3.58
2023-05-13T15:27:01.220Z,4.28
2023-05-13T15:31:02.864Z,2.45
2023-05-13T15:35:04.928Z,2.75
2023-05-13T15:39:07.010Z,3.05
2023-05-13T15:43:08.739Z,2.97
2023-05-13T15:47:10.464Z,3.40
2023-05-13T15:51:12.217Z,3.22
2023-05-13T15:55:13.894Z,3.28
2023-05-13T15:59:15.563Z,3.03
2023-05-13T16:03:17.242Z,2.75
2023-05-13T16:07:18.864Z,2.62
2023-05-13T16:11:20.534Z,2.28
2023-05-13T16:15:22.228Z,2.70
2023-05-13T16:19:24.271Z,2.50
2023-05-13T16:23:25.926Z,3.05
2023-05-13T16:27:28.522Z,3.20
2023-05-13T16:31:30.412Z,2.80
2023-05-13T16:35:32.109Z,2.80
2023-05-13T16:39:33.784Z,3.05
2023-05-13T16:43:35.465Z,2.60
2023-05-13T16:47:37.293Z,3.03
2023-05-13T16:51:39.176Z,2.67
2023-05-13T16:55:40.826Z,2.90
2023-05-13T16:59:43.063Z,2.58
2023-05-13T17:03:44.782Z,2.75
2023-05-13T17:07:46.513Z,3.10
2023-05-13T17:11:48.152Z,3.22
2023-05-13T17:15:49.800Z,3.33
2023-05-13T17:19:51.463Z,2.97
2023-05-13T17:23:53.464Z,2.67
2023-05-13T17:27:55.179Z,3.50
2023-05-13T17:31:56.878Z,3.35
2023-05-13T17:35:58.751Z,3.55
2023-05-13T17:40:02.398Z,3.40
2023-05-13T17:44:04.172Z,2.75
2023-05-13T17:48:06.231Z,3.50
2023-05-13T17:52:08.024Z,3.87
2023-05-13T17:56:10.370Z,3.42
2023-05-13T18:00:13.676Z,3.70
2023-05-13T18:04:15.284Z,3.60
2023-05-13T18:08:16.860Z,3.85
2023-05-13T18:12:18.537Z,3.47
2023-05-13T18:16:20.459Z,3.42
2023-05-13T18:20:22.443Z,3.30
2023-05-13T18:24:24.380Z,3.05
2023-05-13T18:28:26.018Z,3.50
2023-05-13T18:32:27.721Z,3.83
2023-05-13T18:36:29.449Z,3.78
2023-05-13T18:40:31.526Z,3.72
2023-05-13T18:44:33.631Z,3.72
2023-05-13T18:48:35.503Z,3.70
2023-05-13T18:52:37.268Z,3.72
2023-05-13T18:56:39.088Z,4.05
2023-05-13T19:00:40.717Z,4.60
2023-05-13T19:04:42.389Z,4.20
2023-05-13T19:08:44.414Z,4.07
2023-05-13T19:12:46.038Z,4.53
2023-05-13T19:16:47.856Z,5.10
2023-05-13T19:20:49.520Z,5.10
2023-05-13T19:24:51.209Z,4.70
2023-05-13T19:28:52.889Z,5.18
2023-05-13T19:32:54.608Z,6.00
2023-05-13T19:36:56.283Z,6.43
2023-05-13T19:40:57.905Z,5.90
2023-05-13T19:44:59.573Z,6.40
2023-05-13T19:49:01.288Z,6.53
2023-05-13T19:53:02.912Z,5.60
2023-05-13T19:57:04.693Z,6.18
2023-05-13T20:01:06.331Z,6.55
2023-05-13T20:05:08.586Z,6.75
2023-05-13T20:09:11.817Z,6.20
2023-05-13T20:13:13.483Z,7.30
2023-05-13T20:17:18.054Z,6.35
2023-05-13T20:21:19.943Z,8.80
2023-05-13T20:25:21.672Z,8.30
2023-05-13T20:29:23.309Z,8.48
2023-05-13T20:33:25.001Z,6.97
2023-05-13T20:37:26.900Z,7.40
2023-05-13T20:41:28.743Z,7.53
2023-05-13T20:45:30.470Z,7.62
2023-05-13T20:49:33.870Z,9.30
2023-05-13T20:53:36.340Z,9.82
2023-05-13T20:57:38.069Z,9.32
2023-05-13T21:01:39.901Z,9.55
2023-05-13T21:05:41.593Z,9.75
2023-05-13T21:09:43.352Z,9.70
2023-05-13T21:13:44.973Z,9.63
2023-05-13T21:17:47.224Z,8.85
2023-05-13T21:21:49.312Z,11.07
2023-05-13T21:25:51.226Z,9.48
2023-05-13T21:29:52.886Z,9.55
2023-05-13T21:33:54.614Z,8.40
2023-05-13T21:38:08.217Z,8.40
2023-05-13T21:42:13.672Z,8.88
2023-05-13T21:46:15.339Z,8.95
2023-05-13T21:50:17.037Z,8.82
2023-05-13T21:54:19.099Z,9.25
2023-05-13T21:58:23.286Z,10.13
2023-05-13T22:02:25.358Z,10.10
2023-05-13T22:06:27.090Z,9.80
2023-05-13T22:10:29.633Z,10.63
2023-05-13T22:14:31.328Z,12.35
2023-05-13T22:18:33.105Z,11.10
2023-05-13T22:22:34.906Z,9.45
2023-05-13T22:26:36.739Z,8.90
2023-05-13T22:30:38.416Z,9.80
2023-05-13T22:34:40.152Z,13.82
2023-05-13T22:38:42.468Z,15.15
2023-05-13T22:42:44.145Z,10.90
2023-05-13T22:46:45.900Z,9.38
2023-05-13T22:50:47.763Z,9.57
2023-05-13T22:54:49.746Z,12.40
2023-05-13T22:58:51.415Z,11.38
2023-05-13T23:02:53.154Z,9.73
2023-05-13T23:06:54.906Z,7.87
2023-05-13T23:10:56.544Z,8.95
2023-05-13T23:14:58.157Z,8.65
2023-05-13T23:18:59.892Z,8.55
2023-05-13T23:23:01.625Z,9.23
2023-05-13T23:27:03.869Z,10.82
2023-05-13T23:31:05.614Z,15.52
2023-05-13T23:35:07.892Z,15.75
2023-05-13T23:39:09.568Z,10.85
2023-05-13T23:43:11.401Z,7.90
2023-05-13T23:47:13.420Z,8.48
2023-05-13T23:51:15.176Z,8.30
2023-05-13T23:55:18.508Z,7.72
2023-05-13T23:59:20.188Z,8.32
